Radar AviationWeather DUATS TFRs Wunderground Accuweather Weather.com

alt : Radar

TAFs

KCLE 240321Z 2403/2506 VRB03KT P6SM SKC
   FM241300 07006KT P6SM SKC
   FM241900 06015G25KT P6SM BKN250
   FM242300 07015G25KT P6SM OVC090
   FM250300 12010KT P6SM OVC050
KDTW 240246Z 2403/2506 03007KT P6SM SKC
   FM240800 02005KT P6SM SKC
   FM241500 08011G19KT P6SM SKC
   FM250200 10009KT P6SM BKN200
KTOL 232329Z 2400/2424 03006KT P6SM SKC
   FM241700 08010G15KT P6SM SKC
   FM242100 08012KT P6SM SKC
KFDY 232329Z 2400/2424 04010KT P6SM SKC
   FM241700 08010G20KT P6SM SKC
   FM242200 08010KT P6SM SCT250
KJXN 232326Z 2400/2424 VRB03KT P6SM SKC
   FM241700 12011KT P6SM SKC
KFWA 232320Z 2400/2424 04005KT P6SM SKC
   FM241400 07010KT P6SM SKC

METARs

KDUH 240315Z AUTO 00000KT 10SM CLR 07/02 A3007 RMK AO2 T00710022
KJXN 240256Z AUTO 15003KT 10SM CLR 12/M01 A3006 RMK AO2 SLP179 T01171006 52007
KFWA 240254Z 09005KT 10SM CLR 12/00 A3005 RMK AO2 SLP176 T01170000 51007 $
KDTW 240253Z 16003KT 10SM FEW200 12/M01 A3008 RMK AO2 SLP187 T01221011 53009 $
KFDY 240253Z AUTO 10006KT 10SM CLR 09/M02 A3005 RMK AO2 SLP172 T00891022 51005 TSNO
KTDZ 240253Z AUTO 10004KT 10SM CLR 09/02 A3007 RMK AO2 SLP182 T00940017 50008
KTOL 240252Z 00000KT 10SM CLR 09/M01 A3006 RMK AO2 SLP181 T00891006 50009
KCLE 240251Z 00000KT 10SM SCT250 11/01 A3008 RMK AO2 SLP188 T01110011 50001

alt : Satellite

alt : TFRs